createdAt,value
2019-01-13T00:00:11.968Z,93.30
2019-01-13T00:01:05.176Z,93.30
2019-01-13T00:02:05.274Z,93.30
2019-01-13T00:03:05.387Z,93.20
2019-01-13T00:04:05.397Z,93.30
2019-01-13T00:05:05.558Z,93.30
2019-01-13T00:06:05.703Z,93.30
2019-01-13T00:07:05.869Z,93.30
2019-01-13T00:08:05.080Z,93.30
2019-01-13T00:09:07.764Z,93.30
2019-01-13T00:10:05.801Z,93.30
2019-01-13T00:11:05.938Z,93.30
2019-01-13T00:12:08.631Z,93.30
2019-01-13T00:13:08.165Z,93.30
2019-01-13T00:14:05.217Z,93.40
2019-01-13T00:15:05.395Z,93.20
2019-01-13T00:16:10.536Z,93.30
2019-01-13T00:17:07.972Z,93.30
2019-01-13T00:18:08.530Z,93.30
2019-01-13T00:19:08.025Z,93.20
2019-01-13T00:20:08.506Z,93.30
2019-01-13T00:21:07.959Z,93.30
2019-01-13T00:22:08.507Z,93.30
2019-01-13T00:23:08.016Z,93.20
2019-01-13T00:24:11.131Z,93.20
2019-01-13T00:25:05.073Z,93.30
2019-01-13T00:26:05.256Z,93.20
2019-01-13T00:27:05.386Z,93.30
2019-01-13T00:28:05.399Z,93.30
2019-01-13T00:29:05.471Z,93.40
2019-01-13T00:30:05.546Z,93.30
2019-01-13T00:31:05.745Z,93.40
2019-01-13T00:32:05.853Z,93.40
2019-01-13T00:33:05.395Z,93.40
2019-01-13T00:34:07.990Z,93.50
2019-01-13T00:35:08.465Z,93.50
2019-01-13T00:36:05.413Z,93.50
2019-01-13T00:37:05.483Z,93.50
2019-01-13T00:38:08.074Z,93.50
2019-01-13T00:39:05.173Z,93.50
2019-01-13T00:40:05.289Z,93.50
2019-01-13T00:41:05.734Z,93.50
2019-01-13T00:42:05.420Z,93.50
2019-01-13T00:43:10.753Z,93.40
2019-01-13T00:44:05.616Z,93.50
2019-01-13T00:45:10.749Z,93.50
2019-01-13T00:46:05.066Z,93.40
2019-01-13T00:47:05.397Z,93.50
2019-01-13T00:48:08.159Z,93.60
2019-01-13T00:49:07.644Z,93.50
2019-01-13T00:50:05.774Z,93.50
2019-01-13T00:51:08.455Z,93.50
2019-01-13T00:52:07.722Z,93.60
2019-01-13T00:53:05.250Z,93.60
2019-01-13T00:54:05.248Z,93.50
2019-01-13T00:55:05.340Z,93.50
2019-01-13T00:56:05.477Z,93.60
2019-01-13T00:57:05.534Z,93.50
2019-01-13T00:58:05.598Z,93.60
2019-01-13T00:59:08.334Z,93.60
2019-01-13T01:00:07.791Z,93.60
2019-01-13T01:01:05.789Z,93.60
2019-01-13T01:02:05.851Z,93.60
2019-01-13T01:03:05.941Z,93.60
2019-01-13T01:04:05.151Z,93.60
2019-01-13T01:05:05.188Z,93.60
2019-01-13T01:06:05.188Z,93.60
2019-01-13T01:07:05.254Z,93.60
2019-01-13T01:08:05.350Z,93.60
2019-01-13T01:09:05.449Z,93.60
2019-01-13T01:10:05.789Z,93.60
2019-01-13T01:11:05.926Z,93.60
2019-01-13T01:12:06.054Z,93.60
2019-01-13T01:13:05.089Z,93.60
2019-01-13T01:14:07.773Z,93.50
2019-01-13T01:15:08.391Z,93.60
2019-01-13T01:16:05.455Z,93.60
2019-01-13T01:17:05.569Z,93.60
2019-01-13T01:18:05.699Z,93.50
2019-01-13T01:19:05.793Z,93.60
2019-01-13T01:20:05.996Z,93.50
2019-01-13T01:21:05.106Z,93.50
2019-01-13T01:22:07.781Z,93.50
2019-01-13T01:23:05.864Z,93.50
2019-01-13T01:24:05.150Z,93.50
2019-01-13T01:25:05.316Z,93.50
2019-01-13T01:26:10.453Z,93.50
2019-01-13T01:27:05.171Z,93.50
2019-01-13T01:28:07.783Z,93.50
2019-01-13T01:29:05.721Z,93.50
2019-01-13T01:30:07.719Z,93.40
2019-01-13T01:31:08.234Z,93.50
2019-01-13T01:32:05.299Z,93.50
2019-01-13T01:33:05.396Z,93.40
2019-01-13T01:34:05.435Z,93.40
2019-01-13T01:35:05.561Z,93.50
2019-01-13T01:36:05.720Z,93.50
2019-01-13T01:37:05.948Z,93.30
2019-01-13T01:38:05.084Z,93.50
2019-01-13T01:39:05.174Z,93.30
2019-01-13T01:40:05.355Z,93.40
2019-01-13T01:41:05.428Z,93.30
2019-01-13T01:42:10.566Z,93.40
2019-01-13T01:43:05.477Z,93.50
2019-01-13T01:44:08.112Z,93.50
2019-01-13T01:45:05.068Z,93.50
2019-01-13T01:46:07.695Z,93.50
2019-01-13T01:47:10.679Z,93.50
2019-01-13T01:48:08.089Z,93.50
2019-01-13T01:49:05.096Z,93.50
2019-01-13T01:50:05.298Z,93.50
2019-01-13T01:51:07.952Z,93.40
2019-01-13T01:52:06.006Z,93.40
2019-01-13T01:53:07.767Z,93.30
2019-01-13T01:54:08.255Z,93.30
2019-01-13T01:55:05.305Z,93.40
2019-01-13T01:56:05.473Z,93.30
2019-01-13T01:57:05.527Z,93.40
2019-01-13T01:58:08.050Z,93.30
2019-01-13T01:59:05.998Z,93.30
2019-01-13T02:00:05.073Z,93.30
2019-01-13T02:01:05.147Z,93.30
2019-01-13T02:02:05.298Z,93.30
2019-01-13T02:03:05.294Z,93.30
2019-01-13T02:04:07.897Z,93.30
2019-01-13T02:05:05.996Z,93.30
2019-01-13T02:06:05.175Z,93.30
2019-01-13T02:07:05.281Z,93.30
2019-01-13T02:08:05.373Z,93.30
2019-01-13T02:09:05.414Z,93.20
2019-01-13T02:10:05.503Z,93.20
2019-01-13T02:11:05.804Z,93.20
2019-01-13T02:12:05.937Z,93.20
2019-01-13T02:13:05.998Z,93.20
2019-01-13T02:14:10.230Z,93.20
2019-01-13T02:15:07.816Z,93.20
2019-01-13T02:16:05.783Z,93.20
2019-01-13T02:17:05.863Z,93.20
2019-01-13T02:18:08.545Z,93.20
2019-01-13T02:19:05.520Z,93.20
2019-01-13T02:20:05.856Z,93.20
2019-01-13T02:21:05.981Z,93.20
2019-01-13T02:22:07.620Z,93.20
2019-01-13T02:23:05.623Z,93.10
2019-01-13T02:24:05.713Z,93.10
2019-01-13T02:25:08.482Z,93.00
2019-01-13T02:26:05.567Z,93.10
2019-01-13T02:27:08.236Z,93.00
2019-01-13T02:28:07.806Z,93.00
2019-01-13T02:29:08.391Z,93.00
2019-01-13T02:30:07.765Z,93.00
2019-01-13T02:31:05.777Z,93.00
2019-01-13T02:32:08.397Z,93.00
2019-01-13T02:33:05.480Z,93.00
2019-01-13T02:34:08.066Z,92.90
2019-01-13T02:35:08.628Z,92.90
2019-01-13T02:36:08.179Z,92.90
2019-01-13T02:37:07.682Z,92.90
2019-01-13T02:38:08.236Z,92.90
2019-01-13T02:39:05.214Z,92.90
2019-01-13T02:40:05.333Z,92.90
2019-01-13T02:41:05.519Z,92.90
2019-01-13T02:42:05.750Z,67.30
2019-01-13T02:43:05.905Z,92.90
2019-01-13T02:44:05.310Z,92.90
2019-01-13T02:45:07.889Z,92.90
2019-01-13T02:46:05.948Z,92.90
2019-01-13T02:47:05.057Z,92.90
2019-01-13T02:48:07.715Z,92.80
2019-01-13T02:49:05.641Z,92.90
2019-01-13T02:50:08.203Z,92.80
2019-01-13T02:51:05.169Z,92.90
2019-01-13T02:52:07.796Z,92.80
2019-01-13T02:53:05.787Z,92.80
2019-01-13T02:54:05.879Z,92.80
2019-01-13T02:55:05.957Z,92.70
2019-01-13T02:56:07.610Z,92.70
2019-01-13T02:57:05.554Z,92.70
2019-01-13T02:58:05.687Z,92.60
2019-01-13T02:59:05.745Z,92.60
2019-01-13T03:00:05.814Z,92.60
2019-01-13T03:01:05.928Z,92.60
2019-01-13T03:02:07.673Z,92.50
2019-01-13T03:03:08.080Z,92.50
2019-01-13T03:04:05.107Z,92.50
2019-01-13T03:05:05.239Z,92.50
2019-01-13T03:06:05.379Z,92.40
2019-01-13T03:07:05.422Z,92.40
2019-01-13T03:08:05.504Z,92.40
2019-01-13T03:09:08.096Z,92.40
2019-01-13T03:10:05.094Z,92.40
2019-01-13T03:11:05.327Z,92.30
2019-01-13T03:12:05.422Z,92.30
2019-01-13T03:13:05.539Z,92.30
2019-01-13T03:14:08.117Z,92.40
2019-01-13T03:15:05.130Z,92.50
2019-01-13T03:16:07.832Z,92.20
2019-01-13T03:17:05.901Z,92.40
2019-01-13T03:18:05.984Z,92.20
2019-01-13T03:19:05.059Z,92.30
2019-01-13T03:20:07.709Z,92.30
2019-01-13T03:21:05.634Z,92.30
2019-01-13T03:22:08.381Z,92.20
2019-01-13T03:23:05.411Z,92.20
2019-01-13T03:24:08.059Z,92.20
2019-01-13T03:25:05.005Z,92.20
2019-01-13T03:26:05.096Z,92.20
2019-01-13T03:27:05.369Z,92.20
2019-01-13T03:28:05.467Z,92.20
2019-01-13T03:29:08.297Z,92.20
2019-01-13T03:30:05.255Z,92.20
2019-01-13T03:31:12.677Z,92.20
2019-01-13T03:32:06.068Z,92.20
2019-01-13T03:33:05.298Z,92.10
2019-01-13T03:34:05.421Z,92.20
2019-01-13T03:35:06.349Z,92.10
2019-01-13T03:36:05.417Z,92.10
2019-01-13T03:37:08.100Z,92.10
2019-01-13T03:38:05.224Z,92.10
2019-01-13T03:39:05.348Z,92.10
2019-01-13T03:40:10.409Z,92.00
2019-01-13T03:41:08.149Z,92.00
2019-01-13T03:42:05.114Z,92.00
2019-01-13T03:43:05.267Z,92.00
2019-01-13T03:44:05.386Z,92.00
2019-01-13T03:45:05.406Z,92.00
2019-01-13T03:46:07.984Z,91.90
2019-01-13T03:47:05.935Z,92.00
2019-01-13T03:48:10.122Z,91.90
2019-01-13T03:49:05.140Z,91.90
2019-01-13T03:50:10.318Z,91.80
2019-01-13T03:51:05.293Z,91.80
2019-01-13T03:52:05.428Z,91.80
2019-01-13T03:53:05.638Z,91.80
2019-01-13T03:54:05.983Z,91.80
2019-01-13T03:55:05.169Z,91.80
2019-01-13T03:56:05.268Z,91.80
2019-01-13T03:57:07.888Z,91.70
2019-01-13T03:58:08.429Z,91.60
2019-01-13T03:59:13.155Z,91.60
2019-01-13T04:00:07.740Z,91.70
2019-01-13T04:01:05.680Z,91.60
2019-01-13T04:02:05.929Z,91.70
2019-01-13T04:03:05.020Z,91.50
2019-01-13T04:04:05.108Z,91.60
2019-01-13T04:05:07.725Z,91.60
2019-01-13T04:06:08.397Z,91.50
2019-01-13T04:07:05.418Z,91.50
2019-01-13T04:08:05.524Z,91.50
2019-01-13T04:09:05.607Z,91.50
2019-01-13T04:10:05.665Z,91.50
2019-01-13T04:11:08.211Z,91.50
2019-01-13T04:12:07.795Z,91.50
2019-01-13T04:13:05.778Z,91.50
2019-01-13T04:14:08.455Z,91.40
2019-01-13T04:15:07.932Z,91.40
2019-01-13T04:16:05.816Z,91.40
2019-01-13T04:17:06.048Z,91.40
2019-01-13T04:18:10.177Z,91.40
2019-01-13T04:19:07.621Z,91.50
2019-01-13T04:20:08.060Z,91.30
2019-01-13T04:21:08.552Z,91.30
2019-01-13T04:22:05.664Z,91.30
2019-01-13T04:23:05.741Z,91.30
2019-01-13T04:24:05.808Z,91.30
2019-01-13T04:25:05.915Z,91.50
2019-01-13T04:26:06.132Z,91.40
2019-01-13T04:27:05.353Z,91.30
2019-01-13T04:28:05.445Z,91.30
2019-01-13T04:29:05.533Z,91.30
2019-01-13T04:30:05.637Z,91.30
2019-01-13T04:31:05.751Z,91.30
2019-01-13T04:32:08.448Z,91.30
2019-01-13T04:33:07.925Z,91.30
2019-01-13T04:34:10.891Z,91.30
2019-01-13T04:35:05.265Z,91.30
2019-01-13T04:36:08.055Z,91.20
2019-01-13T04:37:05.181Z,91.20
2019-01-13T04:38:05.584Z,91.20
2019-01-13T04:39:05.714Z,91.20
2019-01-13T04:40:08.361Z,91.10
2019-01-13T04:41:07.883Z,91.10
2019-01-13T04:42:05.884Z,91.10
2019-01-13T04:43:05.995Z,91.10
2019-01-13T04:44:05.087Z,91.00
2019-01-13T04:45:05.193Z,91.00
2019-01-13T04:46:10.486Z,91.00
2019-01-13T04:47:07.976Z,91.00
2019-01-13T04:48:05.958Z,91.00
2019-01-13T04:49:05.477Z,91.00
2019-01-13T04:50:08.100Z,91.00
2019-01-13T04:51:07.573Z,91.00
2019-01-13T04:52:05.520Z,91.00
2019-01-13T04:53:05.637Z,91.00
2019-01-13T04:54:05.744Z,90.90
2019-01-13T04:55:05.839Z,90.90
2019-01-13T04:56:06.089Z,90.90
2019-01-13T04:57:05.257Z,90.80
2019-01-13T04:58:05.545Z,90.80
2019-01-13T04:59:05.663Z,90.80
2019-01-13T05:00:05.874Z,90.80
2019-01-13T05:01:05.394Z,90.80
2019-01-13T05:02:08.109Z,90.60
2019-01-13T05:03:07.586Z,90.60
2019-01-13T05:04:08.003Z,90.60
2019-01-13T05:05:08.399Z,90.50
2019-01-13T05:06:05.510Z,90.60
2019-01-13T05:07:05.295Z,90.50
2019-01-13T05:08:05.544Z,90.50
2019-01-13T05:09:05.813Z,90.40
2019-01-13T05:10:05.056Z,90.40
2019-01-13T05:11:05.226Z,90.40
2019-01-13T05:12:05.302Z,90.40
2019-01-13T05:13:05.426Z,90.40
2019-01-13T05:14:05.479Z,90.40
2019-01-13T05:15:05.230Z,90.40
2019-01-13T05:16:07.971Z,90.50
2019-01-13T05:17:06.015Z,90.40
2019-01-13T05:18:05.307Z,90.50
2019-01-13T05:19:05.413Z,90.40
2019-01-13T05:20:05.486Z,90.50
2019-01-13T05:21:05.678Z,90.50
2019-01-13T05:22:06.001Z,90.50
2019-01-13T05:23:10.178Z,90.40
2019-01-13T05:24:07.630Z,90.40
2019-01-13T05:25:08.393Z,90.40
2019-01-13T05:26:05.399Z,90.40
2019-01-13T05:27:10.701Z,90.30
2019-01-13T05:28:05.748Z,90.30
2019-01-13T05:29:05.923Z,90.30
2019-01-13T05:30:05.485Z,90.30
2019-01-13T05:31:05.759Z,90.30
2019-01-13T05:32:05.844Z,90.30
2019-01-13T05:33:05.991Z,90.20
2019-01-13T05:34:05.044Z,90.20
2019-01-13T05:35:05.143Z,90.10
2019-01-13T05:36:07.913Z,90.20
2019-01-13T05:37:05.915Z,90.20
2019-01-13T05:38:07.637Z,90.10
2019-01-13T05:39:05.576Z,90.10
2019-01-13T05:40:05.758Z,90.00
2019-01-13T05:41:08.520Z,90.10
2019-01-13T05:42:10.547Z,90.10
2019-01-13T05:43:05.670Z,90.10
2019-01-13T05:44:05.911Z,90.10
2019-01-13T05:45:05.141Z,90.10
2019-01-13T05:46:05.253Z,90.10
2019-01-13T05:47:11.631Z,90.10
2019-01-13T05:48:05.292Z,90.10
2019-01-13T05:49:05.541Z,90.10
2019-01-13T05:50:08.241Z,90.30
2019-01-13T05:51:10.363Z,90.10
2019-01-13T05:52:05.279Z,90.10
2019-01-13T05:53:07.849Z,90.10
2019-01-13T05:54:08.311Z,90.10
2019-01-13T05:55:05.169Z,90.10
2019-01-13T05:56:05.211Z,90.10
2019-01-13T05:57:07.782Z,90.10
2019-01-13T05:58:05.789Z,90.10
2019-01-13T05:59:05.979Z,90.10
2019-01-13T06:00:07.605Z,90.10
2019-01-13T06:01:05.710Z,90.10
2019-01-13T06:02:08.557Z,90.10
2019-01-13T06:03:05.535Z,90.10
2019-01-13T06:04:08.166Z,90.10
2019-01-13T06:05:05.084Z,90.10
2019-01-13T06:06:10.199Z,90.00
2019-01-13T06:07:05.256Z,90.00
2019-01-13T06:08:05.445Z,89.90
2019-01-13T06:09:08.146Z,89.80
2019-01-13T06:10:07.650Z,89.80
2019-01-13T06:11:08.104Z,89.70
2019-01-13T06:12:05.149Z,89.70
2019-01-13T06:13:05.195Z,89.60
2019-01-13T06:14:05.378Z,89.60
2019-01-13T06:15:05.469Z,89.60
2019-01-13T06:16:08.022Z,89.50
2019-01-13T06:17:06.022Z,89.50
2019-01-13T06:18:10.137Z,89.40
2019-01-13T06:19:05.114Z,89.40
2019-01-13T06:20:05.234Z,89.40
2019-01-13T06:21:05.526Z,89.30
2019-01-13T06:22:05.730Z,89.30
2019-01-13T06:23:05.943Z,89.30
2019-01-13T06:24:06.123Z,89.40
2019-01-13T06:25:07.876Z,89.30
2019-01-13T06:26:05.924Z,89.40
2019-01-13T06:27:08.474Z,89.40
2019-01-13T06:28:05.367Z,89.40
2019-01-13T06:29:05.458Z,89.40
2019-01-13T06:30:05.485Z,89.40
2019-01-13T06:31:05.656Z,89.40
2019-01-13T06:32:05.988Z,89.40
2019-01-13T06:33:07.639Z,89.50
2019-01-13T06:34:05.721Z,89.50
2019-01-13T06:35:08.446Z,89.30
2019-01-13T06:36:05.486Z,89.30
2019-01-13T06:37:10.649Z,89.40
2019-01-13T06:38:06.716Z,89.40
2019-01-13T06:39:05.874Z,89.50
2019-01-13T06:40:05.980Z,89.30
2019-01-13T06:41:07.622Z,89.40
2019-01-13T06:42:05.495Z,89.40
2019-01-13T06:43:10.674Z,89.40
2019-01-13T06:44:05.657Z,89.40
2019-01-13T06:45:06.090Z,89.30
2019-01-13T06:46:05.282Z,89.30
2019-01-13T06:47:05.517Z,89.30
2019-01-13T06:48:05.742Z,89.30
2019-01-13T06:49:05.962Z,89.30
2019-01-13T06:50:07.914Z,89.30
2019-01-13T06:51:05.950Z,89.30
2019-01-13T06:52:05.268Z,89.30
2019-01-13T06:53:05.512Z,89.30
2019-01-13T06:54:08.300Z,89.30
2019-01-13T06:55:07.875Z,89.20
2019-01-13T06:56:05.796Z,89.20
2019-01-13T06:57:08.493Z,89.40
2019-01-13T06:58:05.545Z,89.40
2019-01-13T06:59:08.331Z,89.40
2019-01-13T07:00:07.828Z,89.40
2019-01-13T07:01:08.389Z,89.40
2019-01-13T07:02:05.424Z,89.40
2019-01-13T07:03:05.521Z,89.30
2019-01-13T07:04:05.689Z,89.40
2019-01-13T07:05:13.343Z,89.10
2019-01-13T07:06:05.244Z,89.10
2019-01-13T07:07:05.298Z,89.10
2019-01-13T07:08:05.405Z,89.10
2019-01-13T07:09:05.487Z,89.10
2019-01-13T07:10:05.538Z,89.10
2019-01-13T07:11:05.660Z,89.10
2019-01-13T07:12:05.703Z,89.00
2019-01-13T07:13:05.779Z,89.10
2019-01-13T07:14:10.976Z,89.10
2019-01-13T07:15:08.684Z,89.10
2019-01-13T07:16:05.645Z,89.10
2019-01-13T07:17:05.880Z,89.10
2019-01-13T07:18:06.056Z,89.10
2019-01-13T07:19:05.199Z,89.10
2019-01-13T07:20:05.357Z,89.20
2019-01-13T07:21:05.445Z,89.20
2019-01-13T07:22:08.065Z,89.20
2019-01-13T07:23:05.133Z,89.20
2019-01-13T07:24:07.790Z,89.20
2019-01-13T07:25:08.377Z,89.20
2019-01-13T07:26:05.270Z,89.30
2019-01-13T07:27:05.336Z,89.30
2019-01-13T07:28:07.895Z,89.60
2019-01-13T07:29:05.858Z,89.30
2019-01-13T07:30:07.858Z,89.30
2019-01-13T07:31:05.831Z,89.30
2019-01-13T07:32:11.346Z,89.30
2019-01-13T07:33:05.411Z,89.40
2019-01-13T07:34:05.420Z,89.30
2019-01-13T07:35:08.110Z,89.30
2019-01-13T07:36:05.138Z,89.30
2019-01-13T07:37:05.253Z,89.30
2019-01-13T07:38:05.346Z,89.30
2019-01-13T07:39:05.406Z,89.60
2019-01-13T07:40:05.543Z,89.70
2019-01-13T07:41:05.571Z,89.80
2019-01-13T07:42:05.815Z,89.80
2019-01-13T07:43:05.965Z,89.80
2019-01-13T07:44:05.069Z,89.80
2019-01-13T07:45:05.217Z,89.90
2019-01-13T07:46:07.889Z,89.90
2019-01-13T07:47:06.041Z,89.90
2019-01-13T07:48:07.694Z,89.90
2019-01-13T07:49:05.594Z,89.90
2019-01-13T07:50:05.733Z,89.90
2019-01-13T07:51:05.878Z,89.90
2019-01-13T07:52:05.985Z,90.00
2019-01-13T07:53:05.167Z,90.00
2019-01-13T07:54:07.875Z,90.00
2019-01-13T07:55:08.440Z,90.00
2019-01-13T07:56:05.430Z,90.00
2019-01-13T07:57:07.995Z,90.00
2019-01-13T07:58:08.600Z,90.00
2019-01-13T07:59:05.534Z,90.10
2019-01-13T08:00:08.192Z,90.10
2019-01-13T08:01:05.159Z,90.10
2019-01-13T08:02:05.242Z,90.10
2019-01-13T08:03:05.390Z,90.10
2019-01-13T08:04:05.438Z,90.30
2019-01-13T08:05:13.247Z,90.20
2019-01-13T08:06:12.833Z,90.20
2019-01-13T08:07:05.900Z,90.20
2019-01-13T08:08:06.043Z,90.20
2019-01-13T08:09:05.093Z,90.20
2019-01-13T08:10:07.737Z,90.30
2019-01-13T08:11:05.783Z,90.20
2019-01-13T08:12:08.532Z,90.20
2019-01-13T08:13:05.520Z,90.20
2019-01-13T08:14:08.173Z,90.20
2019-01-13T08:15:05.115Z,90.20
2019-01-13T08:16:05.197Z,90.10
2019-01-13T08:17:05.347Z,90.20
2019-01-13T08:18:05.483Z,90.20
2019-01-13T08:19:08.117Z,90.20
2019-01-13T08:20:07.661Z,90.20
2019-01-13T08:21:05.640Z,90.20
2019-01-13T08:22:08.189Z,90.30
2019-01-13T08:23:05.158Z,90.30
2019-01-13T08:24:05.190Z,90.30
2019-01-13T08:25:07.882Z,90.30
2019-01-13T08:26:08.494Z,90.30
2019-01-13T08:27:05.541Z,90.30
2019-01-13T08:28:05.081Z,90.30
2019-01-13T08:29:07.787Z,90.40
2019-01-13T08:30:05.810Z,90.40
2019-01-13T08:31:05.870Z,90.50
2019-01-13T08:32:05.989Z,90.40
2019-01-13T08:33:05.065Z,90.40
2019-01-13T08:34:05.117Z,90.40
2019-01-13T08:35:07.708Z,90.30
2019-01-13T08:36:05.720Z,90.30
2019-01-13T08:37:05.869Z,90.30
2019-01-13T08:38:05.914Z,90.30
2019-01-13T08:39:06.053Z,90.20
2019-01-13T08:40:05.098Z,90.20
2019-01-13T08:41:05.160Z,90.20
2019-01-13T08:42:05.337Z,90.20
2019-01-13T08:43:05.405Z,90.20
2019-01-13T08:44:13.001Z,90.10
2019-01-13T08:45:08.515Z,90.10
2019-01-13T08:46:05.473Z,90.10
2019-01-13T08:47:05.562Z,90.10
2019-01-13T08:48:10.064Z,90.20
2019-01-13T08:49:05.018Z,90.10
2019-01-13T08:50:05.067Z,90.10
2019-01-13T08:51:05.124Z,90.20
2019-01-13T08:52:05.224Z,90.20
2019-01-13T08:53:05.448Z,90.10
2019-01-13T08:54:08.076Z,90.20
2019-01-13T08:55:07.677Z,90.10
2019-01-13T08:56:08.161Z,90.20
2019-01-13T08:57:07.758Z,90.30
2019-01-13T08:58:08.238Z,90.20
2019-01-13T08:59:05.218Z,90.30
2019-01-13T09:00:07.785Z,90.30
2019-01-13T09:01:05.808Z,90.40
2019-01-13T09:02:08.495Z,90.40
2019-01-13T09:03:05.521Z,90.40
2019-01-13T09:04:08.146Z,90.40
2019-01-13T09:05:07.566Z,90.40
2019-01-13T09:06:05.560Z,90.40
2019-01-13T09:07:05.650Z,90.40
2019-01-13T09:08:05.778Z,90.40
2019-01-13T09:09:08.369Z,90.50
2019-01-13T09:10:05.296Z,90.40
2019-01-13T09:11:05.423Z,90.50
2019-01-13T09:12:05.544Z,90.50
2019-01-13T09:13:05.648Z,90.50
2019-01-13T09:14:05.710Z,90.50
2019-01-13T09:15:05.737Z,90.60
2019-01-13T09:16:05.808Z,90.40
2019-01-13T09:17:06.024Z,90.60
2019-01-13T09:18:05.156Z,90.50
2019-01-13T09:19:05.265Z,90.50
2019-01-13T09:20:05.276Z,90.60
2019-01-13T09:21:07.885Z,90.50
2019-01-13T09:22:05.883Z,90.60
2019-01-13T09:23:08.714Z,90.50
2019-01-13T09:24:05.634Z,90.50
2019-01-13T09:25:10.776Z,90.60
2019-01-13T09:26:08.318Z,90.50
2019-01-13T09:27:10.316Z,90.60
2019-01-13T09:28:05.272Z,90.60
2019-01-13T09:29:05.484Z,90.50
2019-01-13T09:30:08.298Z,90.60
2019-01-13T09:31:05.301Z,90.60
2019-01-13T09:32:05.363Z,90.70
2019-01-13T09:33:06.049Z,90.70
2019-01-13T09:34:07.668Z,90.70
2019-01-13T09:35:05.616Z,90.70
2019-01-13T09:36:08.300Z,90.70
2019-01-13T09:37:05.209Z,90.70
2019-01-13T09:38:07.896Z,90.70
2019-01-13T09:39:08.336Z,90.70
2019-01-13T09:40:10.373Z,90.90
2019-01-13T09:41:07.934Z,90.90
2019-01-13T09:42:08.593Z,90.90
2019-01-13T09:43:05.541Z,90.90
2019-01-13T09:44:08.070Z,91.10
2019-01-13T09:45:08.476Z,91.10
2019-01-13T09:46:05.629Z,91.10
2019-01-13T09:47:06.169Z,91.20
2019-01-13T09:48:09.340Z,91.20
2019-01-13T09:49:16.067Z,91.20
2019-01-13T09:50:05.341Z,91.20
2019-01-13T09:51:06.243Z,91.20
2019-01-13T09:52:05.734Z,91.30
2019-01-13T09:53:08.504Z,91.40
2019-01-13T09:54:05.624Z,91.40
2019-01-13T09:55:08.349Z,91.40
2019-01-13T09:56:07.784Z,91.40
2019-01-13T09:57:08.246Z,91.40
2019-01-13T09:58:05.205Z,91.40
2019-01-13T09:59:07.777Z,91.40
2019-01-13T10:00:05.702Z,91.40
2019-01-13T10:01:08.318Z,91.40
2019-01-13T10:02:07.884Z,91.40
2019-01-13T10:03:05.858Z,91.20
2019-01-13T10:04:05.914Z,91.40
2019-01-13T10:05:06.005Z,91.40
2019-01-13T10:06:07.635Z,91.40
2019-01-13T10:07:08.094Z,91.40
2019-01-13T10:08:05.042Z,91.40
2019-01-13T10:09:05.146Z,91.40
2019-01-13T10:10:05.356Z,91.40
2019-01-13T10:11:07.985Z,91.40
2019-01-13T10:12:06.009Z,91.40
2019-01-13T10:13:07.622Z,91.40
2019-01-13T10:14:05.623Z,91.40
2019-01-13T10:15:05.684Z,91.50
2019-01-13T10:16:05.710Z,91.50
2019-01-13T10:17:08.340Z,91.60
2019-01-13T10:18:05.282Z,91.60
2019-01-13T10:19:05.361Z,91.60
2019-01-13T10:20:05.473Z,91.60
2019-01-13T10:21:05.527Z,91.60
2019-01-13T10:22:05.634Z,91.60
2019-01-13T10:23:05.868Z,91.70
2019-01-13T10:24:06.095Z,91.60
2019-01-13T10:25:12.729Z,91.60
2019-01-13T10:26:05.787Z,91.60
2019-01-13T10:27:08.439Z,91.60
2019-01-13T10:28:07.999Z,91.50
2019-01-13T10:29:05.966Z,91.70
2019-01-13T10:30:08.037Z,91.50
2019-01-13T10:31:06.047Z,91.50
2019-01-13T10:32:05.110Z,91.60
2019-01-13T10:33:07.730Z,91.60
2019-01-13T10:34:08.259Z,91.60
2019-01-13T10:35:05.298Z,91.60
2019-01-13T10:36:05.456Z,91.70
2019-01-13T10:37:05.470Z,91.70
2019-01-13T10:38:05.564Z,91.70
2019-01-13T10:39:08.180Z,91.70
2019-01-13T10:40:05.216Z,91.70
2019-01-13T10:41:10.307Z,91.70
2019-01-13T10:42:05.189Z,91.70
2019-01-13T10:43:07.898Z,91.80
2019-01-13T10:44:08.424Z,91.70
2019-01-13T10:45:05.359Z,91.80
2019-01-13T10:46:05.491Z,91.70
2019-01-13T10:47:05.527Z,91.80
2019-01-13T10:48:05.587Z,91.80
2019-01-13T10:49:05.617Z,91.80
2019-01-13T10:50:05.695Z,91.80
2019-01-13T10:51:05.765Z,91.90
2019-01-13T10:52:05.957Z,91.80
2019-01-13T10:53:05.061Z,91.80
2019-01-13T10:54:09.618Z,91.90
2019-01-13T10:55:05.794Z,91.70
2019-01-13T10:56:06.049Z,91.70
2019-01-13T10:57:05.180Z,91.70
2019-01-13T10:58:10.426Z,91.60
2019-01-13T10:59:05.394Z,91.60
2019-01-13T11:00:05.508Z,91.50
2019-01-13T11:01:05.584Z,91.40
2019-01-13T11:02:05.677Z,91.40
2019-01-13T11:03:09.248Z,91.30
2019-01-13T11:04:05.215Z,91.40
2019-01-13T11:05:05.348Z,91.20
2019-01-13T11:06:05.335Z,91.20
2019-01-13T11:07:05.408Z,91.10
2019-01-13T11:08:12.153Z,91.00
2019-01-13T11:09:05.217Z,91.00
2019-01-13T11:10:07.936Z,90.90
2019-01-13T11:11:05.900Z,90.90
2019-01-13T11:12:08.571Z,90.80
2019-01-13T11:13:07.988Z,90.70
2019-01-13T11:14:05.991Z,90.70
2019-01-13T11:15:07.529Z,90.70
2019-01-13T11:16:05.506Z,90.70
2019-01-13T11:17:05.737Z,90.60
2019-01-13T11:18:08.581Z,90.40
2019-01-13T11:19:08.018Z,90.40
2019-01-13T11:20:05.981Z,90.40
2019-01-13T11:21:05.038Z,90.30
2019-01-13T11:22:07.625Z,90.20
2019-01-13T11:23:05.642Z,90.20
2019-01-13T11:24:05.759Z,90.10
2019-01-13T11:25:05.931Z,90.00
2019-01-13T11:26:05.010Z,89.90
2019-01-13T11:27:05.228Z,89.90
2019-01-13T11:28:05.301Z,89.80
2019-01-13T11:29:05.437Z,89.90
2019-01-13T11:30:05.957Z,89.90
2019-01-13T11:31:05.148Z,89.90
2019-01-13T11:32:07.787Z,89.60
2019-01-13T11:33:10.223Z,89.70
2019-01-13T11:34:08.024Z,89.60
2019-01-13T11:35:08.547Z,89.50
2019-01-13T11:36:05.513Z,89.50
2019-01-13T11:37:08.095Z,89.50
2019-01-13T11:38:07.577Z,89.40
2019-01-13T11:39:08.080Z,89.40
2019-01-13T11:40:05.227Z,89.50
2019-01-13T11:41:05.335Z,89.50
2019-01-13T11:42:07.907Z,89.40
2019-01-13T11:43:05.910Z,89.40
2019-01-13T11:44:05.058Z,89.30
2019-01-13T11:45:05.238Z,89.20
2019-01-13T11:46:05.338Z,89.20
2019-01-13T11:47:08.056Z,89.10
2019-01-13T11:48:07.517Z,89.10
2019-01-13T11:49:08.059Z,89.00
2019-01-13T11:50:05.093Z,89.00
2019-01-13T11:51:05.294Z,89.00
2019-01-13T11:52:05.525Z,88.80
2019-01-13T11:53:05.780Z,88.80
2019-01-13T11:54:05.936Z,88.70
2019-01-13T11:55:07.660Z,88.50
2019-01-13T11:56:05.613Z,88.60
2019-01-13T11:57:08.227Z,88.40
2019-01-13T11:58:05.204Z,88.40
2019-01-13T11:59:05.345Z,88.60
2019-01-13T12:00:05.432Z,88.50
2019-01-13T12:01:13.150Z,88.50
2019-01-13T12:02:05.102Z,88.50
2019-01-13T12:03:07.288Z,88.50
2019-01-13T12:04:05.334Z,88.50
2019-01-13T12:05:06.771Z,88.30
2019-01-13T12:06:05.898Z,88.30
2019-01-13T12:07:06.080Z,88.20
2019-01-13T12:08:08.315Z,88.10
2019-01-13T12:09:05.374Z,88.10
2019-01-13T12:10:05.383Z,88.00
2019-01-13T12:11:05.459Z,88.00
2019-01-13T12:12:05.608Z,87.90
2019-01-13T12:13:05.765Z,87.80
2019-01-13T12:14:08.417Z,87.70
2019-01-13T12:15:05.395Z,87.70
2019-01-13T12:16:07.962Z,87.60
2019-01-13T12:17:06.039Z,87.60
2019-01-13T12:18:07.845Z,87.50
2019-01-13T12:19:05.772Z,87.50
2019-01-13T12:20:08.379Z,87.30
2019-01-13T12:21:05.311Z,87.30
2019-01-13T12:22:05.413Z,87.20
2019-01-13T12:23:08.115Z,87.20
2019-01-13T12:24:07.566Z,87.20
2019-01-13T12:25:05.453Z,87.20
2019-01-13T12:26:05.535Z,87.20
2019-01-13T12:27:05.761Z,87.20
2019-01-13T12:28:05.951Z,87.00
2019-01-13T12:29:05.053Z,87.20
2019-01-13T12:30:08.169Z,87.10
2019-01-13T12:31:05.058Z,87.20
2019-01-13T12:32:05.114Z,87.10
2019-01-13T12:33:10.267Z,87.00
2019-01-13T12:34:05.138Z,87.00
2019-01-13T12:35:05.318Z,87.00
2019-01-13T12:36:05.424Z,87.00
2019-01-13T12:37:05.637Z,87.00
2019-01-13T12:38:05.804Z,86.90
2019-01-13T12:39:05.891Z,86.90
2019-01-13T12:40:05.163Z,86.80
2019-01-13T12:41:05.267Z,86.80
2019-01-13T12:42:05.288Z,86.70
2019-01-13T12:43:07.828Z,86.70
2019-01-13T12:44:05.898Z,86.70
2019-01-13T12:45:05.038Z,86.70
2019-01-13T12:46:07.617Z,86.70
2019-01-13T12:47:05.605Z,86.70
2019-01-13T12:48:08.326Z,86.80
2019-01-13T12:49:05.239Z,86.80
2019-01-13T12:50:10.327Z,86.90
2019-01-13T12:51:07.756Z,86.80
2019-01-13T12:52:05.693Z,86.90